sensor_id;sensor_type;location;lat;lon;timestamp;pressure;altitude;pressure_sealevel;temperature;humidity
22647;BME280;11490;42.726;23.268;2023-08-01T00:01:42;94921.56;;;21.76;79.41
22647;BME280;11490;42.726;23.268;2023-08-01T00:04:08;94920.28;;;21.73;79.12
22647;BME280;11490;42.726;23.268;2023-08-01T00:06:33;94918.06;;;21.75;79.02
22647;BME280;11490;42.726;23.268;2023-08-01T00:08:58;94914.97;;;21.60;79.18
22647;BME280;11490;42.726;23.268;2023-08-01T00:11:24;94906.19;;;21.63;79.25
22647;BME280;11490;42.726;23.268;2023-08-01T00:13:49;94916.75;;;21.64;79.26
22647;BME280;11490;42.726;23.268;2023-08-01T00:16:14;94917.69;;;21.68;79.30
22647;BME280;11490;42.726;23.268;2023-08-01T00:18:40;94906.31;;;21.49;80.32
22647;BME280;11490;42.726;23.268;2023-08-01T00:21:05;94911.13;;;21.52;80.06
22647;BME280;11490;42.726;23.268;2023-08-01T00:23:35;94916.56;;;21.52;80.51
22647;BME280;11490;42.726;23.268;2023-08-01T00:26:00;94913.00;;;21.43;80.85
22647;BME280;11490;42.726;23.268;2023-08-01T00:28:26;94909.97;;;21.44;81.11
22647;BME280;11490;42.726;23.268;2023-08-01T00:31:09;94909.16;;;21.44;80.95
22647;BME280;11490;42.726;23.268;2023-08-01T00:33:35;94910.63;;;21.50;80.67
22647;BME280;11490;42.726;23.268;2023-08-01T00:36:01;94917.97;;;21.49;80.26
22647;BME280;11490;42.726;23.268;2023-08-01T00:38:27;94913.97;;;21.47;80.35
22647;BME280;11490;42.726;23.268;2023-08-01T00:40:52;94917.44;;;21.39;81.09
22647;BME280;11490;42.726;23.268;2023-08-01T00:43:17;94913.44;;;21.36;80.78
22647;BME280;11490;42.726;23.268;2023-08-01T00:45:44;94916.47;;;21.35;81.49
22647;BME280;11490;42.726;23.268;2023-08-01T00:48:10;94895.06;;;21.33;80.98
22647;BME280;11490;42.726;23.268;2023-08-01T00:50:35;94903.41;;;21.37;81.32
22647;BME280;11490;42.726;23.268;2023-08-01T00:53:00;94904.97;;;21.38;80.96
22647;BME280;11490;42.726;23.268;2023-08-01T00:55:27;94902.66;;;21.23;82.11
22647;BME280;11490;42.726;23.268;2023-08-01T00:57:54;94899.19;;;21.31;81.23
22647;BME280;11490;42.726;23.268;2023-08-01T01:00:20;94894.47;;;21.14;82.39
22647;BME280;11490;42.726;23.268;2023-08-01T01:02:45;94900.69;;;21.14;82.47
22647;BME280;11490;42.726;23.268;2023-08-01T01:05:12;94892.06;;;21.12;82.46
22647;BME280;11490;42.726;23.268;2023-08-01T01:07:39;94897.53;;;20.90;83.98
22647;BME280;11490;42.726;23.268;2023-08-01T01:10:05;94889.41;;;20.90;83.95
22647;BME280;11490;42.726;23.268;2023-08-01T01:12:30;94899.38;;;21.03;82.63
22647;BME280;11490;42.726;23.268;2023-08-01T01:14:56;94885.63;;;21.00;82.29
22647;BME280;11490;42.726;23.268;2023-08-01T01:17:21;94884.03;;;21.21;81.48
22647;BME280;11490;42.726;23.268;2023-08-01T01:19:46;94883.22;;;21.21;80.97
22647;BME280;11490;42.726;23.268;2023-08-01T01:22:12;94881.97;;;21.27;80.56
22647;BME280;11490;42.726;23.268;2023-08-01T01:24:39;94872.53;;;21.24;80.32
22647;BME280;11490;42.726;23.268;2023-08-01T01:27:07;94880.34;;;21.26;80.15
22647;BME280;11490;42.726;23.268;2023-08-01T01:29:33;94869.50;;;21.26;79.74
22647;BME280;11490;42.726;23.268;2023-08-01T01:32:00;94867.41;;;21.23;79.34
22647;BME280;11490;42.726;23.268;2023-08-01T01:34:27;94882.22;;;21.17;79.80
22647;BME280;11490;42.726;23.268;2023-08-01T01:36:53;94873.41;;;21.11;79.47
22647;BME280;11490;42.726;23.268;2023-08-01T01:39:18;94871.75;;;21.01;79.03
22647;BME280;11490;42.726;23.268;2023-08-01T01:41:44;94881.03;;;21.09;79.38
22647;BME280;11490;42.726;23.268;2023-08-01T01:44:09;94866.81;;;21.03;79.48
22647;BME280;11490;42.726;23.268;2023-08-01T01:46:35;94865.56;;;21.09;79.58
22647;BME280;11490;42.726;23.268;2023-08-01T01:49:00;94879.56;;;20.72;81.06
22647;BME280;11490;42.726;23.268;2023-08-01T01:51:26;94885.91;;;20.90;80.61
22647;BME280;11490;42.726;23.268;2023-08-01T01:53:52;94889.88;;;20.92;80.11
22647;BME280;11490;42.726;23.268;2023-08-01T01:56:17;94885.56;;;20.91;79.68
22647;BME280;11490;42.726;23.268;2023-08-01T01:58:43;94888.16;;;20.96;79.80
22647;BME280;11490;42.726;23.268;2023-08-01T02:01:08;94889.13;;;21.00;79.26
22647;BME280;11490;42.726;23.268;2023-08-01T02:03:34;94878.34;;;20.56;81.49
22647;BME280;11490;42.726;23.268;2023-08-01T02:06:01;94874.75;;;20.69;80.70
22647;BME280;11490;42.726;23.268;2023-08-01T02:08:28;94881.53;;;20.58;81.43
22647;BME280;11490;42.726;23.268;2023-08-01T02:10:53;94881.09;;;20.64;81.12
22647;BME280;11490;42.726;23.268;2023-08-01T02:13:20;94880.38;;;20.72;80.86
22647;BME280;11490;42.726;23.268;2023-08-01T02:15:45;94890.53;;;20.67;81.33
22647;BME280;11490;42.726;23.268;2023-08-01T02:18:11;94885.28;;;20.70;81.26
22647;BME280;11490;42.726;23.268;2023-08-01T02:20:36;94884.34;;;20.53;81.83
22647;BME280;11490;42.726;23.268;2023-08-01T02:23:01;94878.91;;;20.66;81.72
22647;BME280;11490;42.726;23.268;2023-08-01T02:25:27;94879.38;;;20.46;82.24
22647;BME280;11490;42.726;23.268;2023-08-01T02:27:52;94879.66;;;20.45;82.36
22647;BME280;11490;42.726;23.268;2023-08-01T02:30:18;94880.19;;;20.47;82.43
22647;BME280;11490;42.726;23.268;2023-08-01T02:32:43;94878.94;;;20.53;82.15
22647;BME280;11490;42.726;23.268;2023-08-01T02:35:08;94877.75;;;20.45;81.92
22647;BME280;11490;42.726;23.268;2023-08-01T02:37:34;94875.72;;;20.28;83.11
22647;BME280;11490;42.726;23.268;2023-08-01T02:40:02;94879.19;;;20.29;83.38
22647;BME280;11490;42.726;23.268;2023-08-01T02:42:28;94870.03;;;20.16;83.68
22647;BME280;11490;42.726;23.268;2023-08-01T02:44:53;94874.47;;;20.12;83.57
22647;BME280;11490;42.726;23.268;2023-08-01T02:47:18;94879.94;;;19.85;85.40
22647;BME280;11490;42.726;23.268;2023-08-01T02:49:44;94871.09;;;19.93;85.10
22647;BME280;11490;42.726;23.268;2023-08-01T02:52:09;94867.50;;;19.84;84.70
22647;BME280;11490;42.726;23.268;2023-08-01T02:54:35;94869.72;;;19.82;85.45
22647;BME280;11490;42.726;23.268;2023-08-01T02:57:00;94869.47;;;19.92;85.26
22647;BME280;11490;42.726;23.268;2023-08-01T02:59:26;94865.28;;;19.86;84.51
22647;BME280;11490;42.726;23.268;2023-08-01T03:01:51;94875.53;;;19.89;84.73
22647;BME280;11490;42.726;23.268;2023-08-01T03:04:17;94879.50;;;19.91;84.71
22647;BME280;11490;42.726;23.268;2023-08-01T03:06:42;94880.44;;;19.87;84.94
22647;BME280;11490;42.726;23.268;2023-08-01T03:09:07;94885.16;;;19.81;85.28
22647;BME280;11490;42.726;23.268;2023-08-01T03:11:35;94888.34;;;19.83;85.33
22647;BME280;11490;42.726;23.268;2023-08-01T03:14:00;94874.50;;;19.85;84.95
22647;BME280;11490;42.726;23.268;2023-08-01T03:16:26;94879.53;;;19.78;84.81
22647;BME280;11490;42.726;23.268;2023-08-01T03:18:51;94885.16;;;19.81;84.96
22647;BME280;11490;42.726;23.268;2023-08-01T03:21:17;94879.41;;;19.83;84.75
22647;BME280;11490;42.726;23.268;2023-08-01T03:23:42;94886.69;;;19.74;84.42
22647;BME280;11490;42.726;23.268;2023-08-01T03:26:08;94891.28;;;19.59;84.56
22647;BME280;11490;42.726;23.268;2023-08-01T03:28:33;94888.09;;;19.57;84.37
22647;BME280;11490;42.726;23.268;2023-08-01T03:30:58;94900.00;;;19.56;84.44
22647;BME280;11490;42.726;23.268;2023-08-01T03:33:24;94903.00;;;19.55;84.98
22647;BME280;11490;42.726;23.268;2023-08-01T03:35:49;94895.97;;;19.40;85.08
22647;BME280;11490;42.726;23.268;2023-08-01T03:38:15;94899.78;;;19.39;85.59
22647;BME280;11490;42.726;23.268;2023-08-01T03:40:40;94895.88;;;19.45;85.27
22647;BME280;11490;42.726;23.268;2023-08-01T03:43:06;94901.97;;;19.37;86.32
22647;BME280;11490;42.726;23.268;2023-08-01T03:45:32;94893.16;;;19.45;85.85
22647;BME280;11490;42.726;23.268;2023-08-01T03:47:58;94899.09;;;19.47;85.59
22647;BME280;11490;42.726;23.268;2023-08-01T03:50:24;94906.97;;;19.30;86.57
22647;BME280;11490;42.726;23.268;2023-08-01T03:52:49;94896.78;;;19.27;86.79
22647;BME280;11490;42.726;23.268;2023-08-01T03:55:14;94903.56;;;19.38;86.24
22647;BME280;11490;42.726;23.268;2023-08-01T03:57:40;94899.66;;;19.44;85.85
22647;BME280;11490;42.726;23.268;2023-08-01T04:00:06;94905.75;;;19.09;87.08
22647;BME280;11490;42.726;23.268;2023-08-01T04:02:41;94896.56;;;19.10;87.93
22647;BME280;11490;42.726;23.268;2023-08-01T04:05:08;94896.06;;;19.21;87.47
22647;BME280;11490;42.726;23.268;2023-08-01T04:07:34;94896.16;;;19.30;87.08
22647;BME280;11490;42.726;23.268;2023-08-01T04:10:00;94901.97;;;19.37;87.05
22647;BME280;11490;42.726;23.268;2023-08-01T04:12:26;94903.41;;;19.35;87.13
22647;BME280;11490;42.726;23.268;2023-08-01T04:14:51;94908.19;;;19.24;87.71
22647;BME280;11490;42.726;23.268;2023-08-01T04:17:17;94894.38;;;19.26;87.79
22647;BME280;11490;42.726;23.268;2023-08-01T04:19:42;94914.78;;;19.45;87.46
22647;BME280;11490;42.726;23.268;2023-08-01T04:22:07;94913.03;;;19.54;87.17
22647;BME280;11490;42.726;23.268;2023-08-01T04:24:34;94914.81;;;19.59;86.76
22647;BME280;11490;42.726;23.268;2023-08-01T04:26:59;94920.75;;;19.61;86.67
22647;BME280;11490;42.726;23.268;2023-08-01T04:29:25;94917.22;;;19.60;87.50
22647;BME280;11490;42.726;23.268;2023-08-01T04:31:50;94903.22;;;19.72;86.83
22647;BME280;11490;42.726;23.268;2023-08-01T04:34:15;94904.41;;;19.52;87.30
22647;BME280;11490;42.726;23.268;2023-08-01T04:36:41;94918.66;;;19.58;86.77
22647;BME280;11490;42.726;23.268;2023-08-01T04:39:06;94917.84;;;19.71;86.43
22647;BME280;11490;42.726;23.268;2023-08-01T04:41:31;94911.03;;;19.74;86.44
22647;BME280;11490;42.726;23.268;2023-08-01T04:43:57;94906.59;;;19.78;86.58
22647;BME280;11490;42.726;23.268;2023-08-01T04:46:22;94909.00;;;19.93;85.81
22647;BME280;11490;42.726;23.268;2023-08-01T04:48:47;94891.91;;;20.06;84.58
22647;BME280;11490;42.726;23.268;2023-08-01T04:51:13;94897.22;;;20.11;83.28
22647;BME280;11490;42.726;23.268;2023-08-01T04:53:38;94906.09;;;20.25;83.34
22647;BME280;11490;42.726;23.268;2023-08-01T04:56:03;94904.81;;;20.23;82.72
22647;BME280;11490;42.726;23.268;2023-08-01T04:58:29;94907.88;;;20.30;82.05
22647;BME280;11490;42.726;23.268;2023-08-01T05:00:55;94908.13;;;20.33;82.53
22647;BME280;11490;42.726;23.268;2023-08-01T05:03:21;94909.31;;;20.27;82.96
22647;BME280;11490;42.726;23.268;2023-08-01T05:05:46;94908.34;;;20.10;84.29
22647;BME280;11490;42.726;23.268;2023-08-01T05:08:12;94902.72;;;20.33;82.60
22647;BME280;11490;42.726;23.268;2023-08-01T05:10:37;94903.59;;;20.43;81.10
22647;BME280;11490;42.726;23.268;2023-08-01T05:13:03;94905.22;;;20.52;81.29
22647;BME280;11490;42.726;23.268;2023-08-01T05:15:28;94912.59;;;20.52;81.13
22647;BME280;11490;42.726;23.268;2023-08-01T05:17:53;94909.09;;;20.60;80.55
22647;BME280;11490;42.726;23.268;2023-08-01T05:20:19;94913.31;;;20.66;80.24
22647;BME280;11490;42.726;23.268;2023-08-01T05:22:45;94899.78;;;20.66;81.47
22647;BME280;11490;42.726;23.268;2023-08-01T05:25:10;94903.34;;;20.75;80.50
22647;BME280;11490;42.726;23.268;2023-08-01T05:27:35;94912.91;;;21.03;80.02
22647;BME280;11490;42.726;23.268;2023-08-01T05:30:01;94924.88;;;21.02;78.94
22647;BME280;11490;42.726;23.268;2023-08-01T05:32:26;94915.38;;;21.13;77.93
22647;BME280;11490;42.726;23.268;2023-08-01T05:34:51;94924.41;;;21.31;77.65
22647;BME280;11490;42.726;23.268;2023-08-01T05:37:20;94920.81;;;21.44;77.45
22647;BME280;11490;42.726;23.268;2023-08-01T05:39:45;94919.03;;;21.40;77.74
22647;BME280;11490;42.726;23.268;2023-08-01T05:42:11;94923.75;;;21.57;77.67
22647;BME280;11490;42.726;23.268;2023-08-01T05:44:36;94913.75;;;21.74;77.60
22647;BME280;11490;42.726;23.268;2023-08-01T05:47:01;94910.28;;;21.91;76.85
22647;BME280;11490;42.726;23.268;2023-08-01T05:49:27;94915.56;;;21.96;75.43
22647;BME280;11490;42.726;23.268;2023-08-01T05:51:54;94905.16;;;21.89;73.45
22647;BME280;11490;42.726;23.268;2023-08-01T05:54:20;94902.44;;;21.89;72.04
22647;BME280;11490;42.726;23.268;2023-08-01T05:56:45;94908.72;;;21.99;72.47
22647;BME280;11490;42.726;23.268;2023-08-01T05:59:10;94906.03;;;22.16;72.26
22647;BME280;11490;42.726;23.268;2023-08-01T06:01:36;94907.13;;;22.15;72.02
22647;BME280;11490;42.726;23.268;2023-08-01T06:04:01;94896.28;;;22.32;72.25
22647;BME280;11490;42.726;23.268;2023-08-01T06:06:27;94899.81;;;22.41;71.38
22647;BME280;11490;42.726;23.268;2023-08-01T06:08:52;94886.53;;;22.40;70.50
22647;BME280;11490;42.726;23.268;2023-08-01T06:11:18;94895.34;;;22.45;70.66
22647;BME280;11490;42.726;23.268;2023-08-01T06:13:43;94903.47;;;22.54;70.87
22647;BME280;11490;42.726;23.268;2023-08-01T06:16:09;94896.78;;;22.69;70.04
22647;BME280;11490;42.726;23.268;2023-08-01T06:18:35;94892.91;;;22.95;68.89
22647;BME280;11490;42.726;23.268;2023-08-01T06:21:00;94893.75;;;22.79;67.53
22647;BME280;11490;42.726;23.268;2023-08-01T06:23:27;94895.97;;;22.94;67.85
22647;BME280;11490;42.726;23.268;2023-08-01T06:25:52;94898.81;;;23.06;67.77
22647;BME280;11490;42.726;23.268;2023-08-01T06:28:17;94885.03;;;23.11;67.20
22647;BME280;11490;42.726;23.268;2023-08-01T06:30:43;94892.47;;;23.40;66.80
22647;BME280;11490;42.726;23.268;2023-08-01T06:33:08;94893.78;;;23.34;67.36
22647;BME280;11490;42.726;23.268;2023-08-01T06:35:33;94902.13;;;23.29;65.77
22647;BME280;11490;42.726;23.268;2023-08-01T06:37:59;94893.31;;;23.23;65.81
22647;BME280;11490;42.726;23.268;2023-08-01T06:40:24;94883.13;;;23.12;65.37
22647;BME280;11490;42.726;23.268;2023-08-01T06:42:50;94882.44;;;23.23;64.66
22647;BME280;11490;42.726;23.268;2023-08-01T06:45:16;94884.94;;;23.46;65.22
22647;BME280;11490;42.726;23.268;2023-08-01T06:47:43;94897.66;;;23.71;64.89
22647;BME280;11490;42.726;23.268;2023-08-01T06:50:09;94885.75;;;23.84;64.35
22647;BME280;11490;42.726;23.268;2023-08-01T06:52:35;94887.63;;;23.92;64.10
22647;BME280;11490;42.726;23.268;2023-08-01T06:55:00;94883.41;;;23.95;64.35
22647;BME280;11490;42.726;23.268;2023-08-01T06:57:25;94889.34;;;23.97;64.90
22647;BME280;11490;42.726;23.268;2023-08-01T06:59:51;94886.66;;;23.88;63.85
22647;BME280;11490;42.726;23.268;2023-08-01T07:02:16;94884.81;;;24.01;65.05
22647;BME280;11490;42.726;23.268;2023-08-01T07:04:42;94889.50;;;23.62;65.92
22647;BME280;11490;42.726;23.268;2023-08-01T07:07:07;94889.28;;;24.05;64.67
22647;BME280;11490;42.726;23.268;2023-08-01T07:09:34;94889.09;;;24.10;64.98
22647;BME280;11490;42.726;23.268;2023-08-01T07:11:59;94877.31;;;24.27;64.40
22647;BME280;11490;42.726;23.268;2023-08-01T07:14:25;94870.31;;;24.59;62.71
22647;BME280;11490;42.726;23.268;2023-08-01T07:16:50;94875.19;;;24.53;61.80
22647;BME280;11490;42.726;23.268;2023-08-01T07:19:16;94878.75;;;24.66;60.94
22647;BME280;11490;42.726;23.268;2023-08-01T07:21:41;94877.91;;;24.86;61.87
22647;BME280;11490;42.726;23.268;2023-08-01T07:24:06;94874.94;;;24.79;61.47
22647;BME280;11490;42.726;23.268;2023-08-01T07:26:32;94858.69;;;24.29;63.08
22647;BME280;11490;42.726;23.268;2023-08-01T07:28:57;94870.59;;;24.78;61.23
22647;BME280;11490;42.726;23.268;2023-08-01T07:31:23;94866.50;;;24.93;63.07
22647;BME280;11490;42.726;23.268;2023-08-01T07:33:48;94868.13;;;25.18;60.54
22647;BME280;11490;42.726;23.268;2023-08-01T07:36:14;94868.34;;;24.80;61.04
22647;BME280;11490;42.726;23.268;2023-08-01T07:38:39;94864.47;;;25.02;61.38
22647;BME280;11490;42.726;23.268;2023-08-01T07:41:06;94873.19;;;25.28;61.19
22647;BME280;11490;42.726;23.268;2023-08-01T07:43:32;94872.41;;;25.52;61.21
22647;BME280;11490;42.726;23.268;2023-08-01T07:45:58;94867.09;;;25.11;60.42
22647;BME280;11490;42.726;23.268;2023-08-01T07:48:23;94861.69;;;25.35;60.41
22647;BME280;11490;42.726;23.268;2023-08-01T07:50:49;94872.94;;;25.34;59.85
22647;BME280;11490;42.726;23.268;2023-08-01T07:53:14;94877.00;;;25.60;59.00
22647;BME280;11490;42.726;23.268;2023-08-01T07:55:39;94864.59;;;25.75;59.08
22647;BME280;11490;42.726;23.268;2023-08-01T07:58:05;94867.44;;;25.91;59.61
22647;BME280;11490;42.726;23.268;2023-08-01T08:00:31;94860.16;;;25.58;58.42
22647;BME280;11490;42.726;23.268;2023-08-01T08:02:56;94858.53;;;25.57;58.87
22647;BME280;11490;42.726;23.268;2023-08-01T08:05:22;94858.19;;;25.71;57.66
22647;BME280;11490;42.726;23.268;2023-08-01T08:07:47;94852.59;;;26.16;58.14
22647;BME280;11490;42.726;23.268;2023-08-01T08:10:13;94847.34;;;26.11;57.63
22647;BME280;11490;42.726;23.268;2023-08-01T08:12:39;94844.22;;;25.73;58.86
22647;BME280;11490;42.726;23.268;2023-08-01T08:15:05;94843.38;;;25.96;57.24
22647;BME280;11490;42.726;23.268;2023-08-01T08:17:30;94843.63;;;26.56;57.25
22647;BME280;11490;42.726;23.268;2023-08-01T08:19:56;94841.03;;;26.75;54.77
22647;BME280;11490;42.726;23.268;2023-08-01T08:22:21;94824.25;;;25.36;57.64
22647;BME280;11490;42.726;23.268;2023-08-01T08:24:47;94844.91;;;25.94;56.48
22647;BME280;11490;42.726;23.268;2023-08-01T08:27:13;94837.34;;;25.30;57.51
22647;BME280;11490;42.726;23.268;2023-08-01T08:29:38;94836.41;;;26.11;56.07
22647;BME280;11490;42.726;23.268;2023-08-01T08:32:04;94827.41;;;26.91;54.72
22647;BME280;11490;42.726;23.268;2023-08-01T08:34:30;94829.94;;;27.27;54.80
22647;BME280;11490;42.726;23.268;2023-08-01T08:36:55;94822.81;;;27.54;53.44
22647;BME280;11490;42.726;23.268;2023-08-01T08:39:20;94818.53;;;27.72;52.73
22647;BME280;11490;42.726;23.268;2023-08-01T08:41:48;94822.88;;;28.24;52.31
22647;BME280;11490;42.726;23.268;2023-08-01T08:44:17;94819.06;;;28.13;50.23
22647;BME280;11490;42.726;23.268;2023-08-01T08:46:51;94811.84;;;28.59;50.99
22647;BME280;11490;42.726;23.268;2023-08-01T08:49:18;94816.59;;;28.23;52.89
22647;BME280;11490;42.726;23.268;2023-08-01T08:51:46;94814.94;;;28.57;50.61
22647;BME280;11490;42.726;23.268;2023-08-01T08:54:13;94813.25;;;28.88;48.76
22647;BME280;11490;42.726;23.268;2023-08-01T08:56:39;94813.38;;;28.95;49.62
22647;BME280;11490;42.726;23.268;2023-08-01T08:59:07;94811.34;;;28.92;48.79
22647;BME280;11490;42.726;23.268;2023-08-01T09:01:33;94805.50;;;29.16;49.40
22647;BME280;11490;42.726;23.268;2023-08-01T09:03:59;94797.25;;;29.16;48.82
22647;BME280;11490;42.726;23.268;2023-08-01T09:06:28;94792.38;;;29.06;47.10
22647;BME280;11490;42.726;23.268;2023-08-01T09:09:09;94794.59;;;29.42;47.53
22647;BME280;11490;42.726;23.268;2023-08-01T09:11:42;94793.00;;;28.96;47.46
22647;BME280;11490;42.726;23.268;2023-08-01T09:14:09;94790.69;;;28.59;48.80
22647;BME280;11490;42.726;23.268;2023-08-01T09:16:34;94781.81;;;28.47;48.90
22647;BME280;11490;42.726;23.268;2023-08-01T09:19:00;94791.94;;;29.04;47.15
22647;BME280;11490;42.726;23.268;2023-08-01T09:21:25;94775.53;;;29.53;48.19
22647;BME280;11490;42.726;23.268;2023-08-01T09:23:51;94770.47;;;29.81;45.96
22647;BME280;11490;42.726;23.268;2023-08-01T09:26:18;94773.06;;;29.97;45.27
22647;BME280;11490;42.726;23.268;2023-08-01T09:28:55;94769.03;;;29.91;44.87
22647;BME280;11490;42.726;23.268;2023-08-01T09:31:29;94777.59;;;29.60;44.71
22647;BME280;11490;42.726;23.268;2023-08-01T09:33:55;94778.34;;;29.57;46.09
22647;BME280;11490;42.726;23.268;2023-08-01T09:36:22;94775.59;;;29.83;45.17
22647;BME280;11490;42.726;23.268;2023-08-01T09:38:48;94771.59;;;29.77;45.18
22647;BME280;11490;42.726;23.268;2023-08-01T09:41:17;94779.03;;;29.50;45.84
22647;BME280;11490;42.726;23.268;2023-08-01T09:43:46;94773.84;;;30.24;45.35
22647;BME280;11490;42.726;23.268;2023-08-01T09:46:12;94767.91;;;30.22;44.11
22647;BME280;11490;42.726;23.268;2023-08-01T09:48:38;94770.72;;;29.96;44.14
22647;BME280;11490;42.726;23.268;2023-08-01T09:51:07;94760.28;;;29.33;45.14
22647;BME280;11490;42.726;23.268;2023-08-01T09:53:34;94762.16;;;29.29;46.25
22647;BME280;11490;42.726;23.268;2023-08-01T09:56:00;94756.25;;;30.02;45.01
22647;BME280;11490;42.726;23.268;2023-08-01T09:58:32;94753.59;;;30.39;45.00
22647;BME280;11490;42.726;23.268;2023-08-01T10:00:58;94743.94;;;30.22;44.26
22647;BME280;11490;42.726;23.268;2023-08-01T10:03:27;94743.47;;;30.80;44.09
22647;BME280;11490;42.726;23.268;2023-08-01T10:05:56;94738.69;;;31.14;42.49
22647;BME280;11490;42.726;23.268;2023-08-01T10:08:22;94735.84;;;30.03;44.14
22647;BME280;11490;42.726;23.268;2023-08-01T10:10:48;94726.75;;;29.46;43.01
22647;BME280;11490;42.726;23.268;2023-08-01T10:13:13;94701.69;;;29.52;42.58
22647;BME280;11490;42.726;23.268;2023-08-01T10:15:40;94702.53;;;30.45;42.36
22647;BME280;11490;42.726;23.268;2023-08-01T10:18:09;94724.38;;;31.02;42.91
22647;BME280;11490;42.726;23.268;2023-08-01T10:20:36;94723.06;;;31.29;39.26
22647;BME280;11490;42.726;23.268;2023-08-01T10:23:03;94721.47;;;31.24;38.20
22647;BME280;11490;42.726;23.268;2023-08-01T10:25:30;94728.97;;;31.79;38.85
22647;BME280;11490;42.726;23.268;2023-08-01T10:28:03;94709.00;;;31.41;38.44
22647;BME280;11490;42.726;23.268;2023-08-01T10:30:29;94705.16;;;31.56;40.33
22647;BME280;11490;42.726;23.268;2023-08-01T10:32:56;94707.78;;;31.90;39.44
22647;BME280;11490;42.726;23.268;2023-08-01T10:35:39;94708.47;;;31.72;37.71
22647;BME280;11490;42.726;23.268;2023-08-01T10:38:10;94685.28;;;31.26;39.18
22647;BME280;11490;42.726;23.268;2023-08-01T10:40:40;94673.88;;;30.87;39.46
22647;BME280;11490;42.726;23.268;2023-08-01T10:43:19;94687.69;;;31.34;38.70
22647;BME280;11490;42.726;23.268;2023-08-01T10:45:59;94680.88;;;31.72;39.17
22647;BME280;11490;42.726;23.268;2023-08-01T10:48:25;94693.00;;;32.30;38.93
22647;BME280;11490;42.726;23.268;2023-08-01T10:50:55;94683.06;;;31.49;39.26
22647;BME280;11490;42.726;23.268;2023-08-01T10:53:24;94682.66;;;31.47;38.78
22647;BME280;11490;42.726;23.268;2023-08-01T10:55:49;94675.59;;;31.53;39.31
22647;BME280;11490;42.726;23.268;2023-08-01T10:58:15;94655.94;;;31.04;37.35
22647;BME280;11490;42.726;23.268;2023-08-01T11:00:44;94658.31;;;31.60;38.74
22647;BME280;11490;42.726;23.268;2023-08-01T11:03:09;94658.56;;;31.37;37.54
22647;BME280;11490;42.726;23.268;2023-08-01T11:05:35;94625.81;;;30.77;36.59
22647;BME280;11490;42.726;23.268;2023-08-01T11:08:02;94636.69;;;30.63;38.63
22647;BME280;11490;42.726;23.268;2023-08-01T11:10:29;94658.41;;;31.16;38.17
22647;BME280;11490;42.726;23.268;2023-08-01T11:12:55;94638.13;;;31.45;38.39
22647;BME280;11490;42.726;23.268;2023-08-01T11:15:21;94645.44;;;31.75;38.04
22647;BME280;11490;42.726;23.268;2023-08-01T11:17:52;94626.28;;;31.34;38.22
22647;BME280;11490;42.726;23.268;2023-08-01T11:20:20;94646.34;;;32.03;38.28
22647;BME280;11490;42.726;23.268;2023-08-01T11:22:57;94629.78;;;32.07;35.92
22647;BME280;11490;42.726;23.268;2023-08-01T11:25:36;94641.66;;;32.11;35.10
22647;BME280;11490;42.726;23.268;2023-08-01T11:28:05;94634.06;;;31.25;36.80
22647;BME280;11490;42.726;23.268;2023-08-01T11:30:33;94621.59;;;31.45;35.91
22647;BME280;11490;42.726;23.268;2023-08-01T11:32:59;94606.66;;;31.50;35.85
22647;BME280;11490;42.726;23.268;2023-08-01T11:35:25;94603.22;;;31.67;36.24
22647;BME280;11490;42.726;23.268;2023-08-01T11:37:51;94617.16;;;31.99;35.56
22647;BME280;11490;42.726;23.268;2023-08-01T11:40:19;94622.03;;;31.54;35.42
22647;BME280;11490;42.726;23.268;2023-08-01T11:42:49;94611.66;;;32.02;31.29
22647;BME280;11490;42.726;23.268;2023-08-01T11:45:16;94613.25;;;32.14;28.67
22647;BME280;11490;42.726;23.268;2023-08-01T11:47:46;94596.03;;;32.56;28.94
22647;BME280;11490;42.726;23.268;2023-08-01T11:50:12;94604.19;;;32.10;29.49
22647;BME280;11490;42.726;23.268;2023-08-01T11:52:37;94591.97;;;32.15;29.83
22647;BME280;11490;42.726;23.268;2023-08-01T11:55:03;94585.34;;;32.37;29.75
22647;BME280;11490;42.726;23.268;2023-08-01T11:57:28;94573.13;;;32.31;30.63
22647;BME280;11490;42.726;23.268;2023-08-01T11:59:55;94562.09;;;32.56;31.38
22647;BME280;11490;42.726;23.268;2023-08-01T12:02:27;94597.66;;;32.93;30.75
22647;BME280;11490;42.726;23.268;2023-08-01T12:04:53;94590.53;;;32.60;29.01
22647;BME280;11490;42.726;23.268;2023-08-01T12:07:20;94583.81;;;32.61;27.65
22647;BME280;11490;42.726;23.268;2023-08-01T12:09:59;94568.81;;;32.47;28.37
22647;BME280;11490;42.726;23.268;2023-08-01T12:12:28;94566.44;;;32.49;28.68
22647;BME280;11490;42.726;23.268;2023-08-01T12:14:54;94568.09;;;31.60;26.70
22647;BME280;11490;42.726;23.268;2023-08-01T12:17:20;94570.72;;;32.22;28.45
22647;BME280;11490;42.726;23.268;2023-08-01T12:19:46;94554.97;;;32.26;27.60
22647;BME280;11490;42.726;23.268;2023-08-01T12:22:12;94573.94;;;32.49;27.12
22647;BME280;11490;42.726;23.268;2023-08-01T12:24:37;94580.25;;;32.42;28.08
22647;BME280;11490;42.726;23.268;2023-08-01T12:27:07;94561.28;;;32.23;28.05
22647;BME280;11490;42.726;23.268;2023-08-01T12:29:33;94562.88;;;32.35;28.20
22647;BME280;11490;42.726;23.268;2023-08-01T12:31:58;94545.34;;;31.70;26.92
22647;BME280;11490;42.726;23.268;2023-08-01T12:34:24;94557.22;;;31.85;29.36
22647;BME280;11490;42.726;23.268;2023-08-01T12:36:49;94564.84;;;31.37;28.27
22647;BME280;11490;42.726;23.268;2023-08-01T12:39:15;94565.81;;;31.66;28.39
22647;BME280;11490;42.726;23.268;2023-08-01T12:41:41;94552.03;;;31.04;27.23
22647;BME280;11490;42.726;23.268;2023-08-01T12:44:07;94545.84;;;31.18;28.72
22647;BME280;11490;42.726;23.268;2023-08-01T12:46:32;94555.06;;;31.43;30.42